Time;durP1;ratioP1;P1;durP2;ratioP2;P2;SDS_P1;SDS_P2;PMS_P1;PMS_P2;Temp;Humidity;BMP_temperature;BMP_pressure;BME280_temperature;BME280_humidity;BME280_pressure;Samples;Min_cycle;Max_cycle;Signal;HPM_P1;HPM_P2
2022/05/11 00:00:46;;;;;;;11.07;2.13;;;;;;;-149.78;100.00;50105.72;5121339;27;20064;-74
2022/05/11 00:03:12;;;;;;;12.05;2.55;;;;;;;-149.78;100.00;50107.69;5103021;27;20049;-73
2022/05/11 00:05:38;;;;;;;7.78;2.00;;;;;;;-149.78;100.00;50103.78;5120367;27;20035;-74
2022/05/11 00:08:04;;;;;;;9.65;2.28;;;;;;;-149.78;100.00;50092.03;5085288;27;20319;-73
2022/05/11 00:10:31;;;;;;;14.43;2.47;;;;;;;-149.78;100.00;50095.94;5102893;27;20039;-74
2022/05/11 00:12:57;;;;;;;7.45;2.08;;;;;;;-149.78;100.00;50078.34;5121170;27;20066;-74
2022/05/11 00:15:24;;;;;;;12.70;2.67;;;;;;;-149.78;100.00;50109.66;5085556;27;20463;-72
2022/05/11 00:17:50;;;;;;;8.20;2.15;;;;;;;-149.78;100.00;50119.41;5103360;27;20118;-73
2022/05/11 00:20:17;;;;;;;10.93;2.08;;;;;;;-149.78;100.00;50133.09;5121089;27;20030;-73
2022/05/11 00:22:43;;;;;;;6.05;2.05;;;;;;;-149.78;100.00;50103.78;5120543;27;20037;-74
2022/05/11 00:25:11;;;;;;;8.90;2.30;;;;;;;-149.78;100.00;50088.13;5119825;27;20062;-74
2022/05/11 00:27:37;;;;;;;13.77;2.50;;;;;;;-149.78;100.00;50101.81;5102983;27;20496;-74
2022/05/11 00:30:04;;;;;;;11.63;2.10;;;;;;;-149.78;100.00;50115.50;5119849;27;20035;-74
2022/05/11 00:32:31;;;;;;;11.20;2.35;;;;;;;-149.78;100.00;50103.78;5121134;27;20030;-74
2022/05/11 00:34:56;;;;;;;11.60;2.53;;;;;;;-149.78;100.00;50095.94;5119631;27;20559;-74
2022/05/11 00:37:24;;;;;;;10.32;2.40;;;;;;;-149.78;100.00;50092.03;5101326;27;20031;-74
2022/05/11 00:39:51;;;;;;;6.93;2.08;;;;;;;-149.78;100.00;50137.03;5119471;27;20117;-74
2022/05/11 00:42:16;;;;;;;10.38;2.25;;;;;;;-149.78;100.00;50113.56;5120317;27;20694;-74
2022/05/11 00:44:42;;;;;;;19.15;2.45;;;;;;;-149.78;100.00;50113.56;5101851;27;20046;-74
2022/05/11 00:47:20;;;;;;;15.82;3.17;;;;;;;-149.78;100.00;50103.78;5120616;27;20019;-73
2022/05/11 00:49:51;;;;;;;8.10;2.03;;;;;;;-149.78;100.00;50135.06;5083604;27;20031;-74
2022/05/11 00:52:45;;;;;;;10.93;2.65;;;;;;;-149.78;100.00;50119.41;5120296;27;20046;-74
2022/05/11 00:55:16;;;;;;;10.98;2.65;;;;;;;-149.78;100.00;50095.94;5114326;27;20053;-73
2022/05/11 00:57:55;;;;;;;13.40;2.58;;;;;;;-149.78;100.00;50125.28;5120084;27;20043;-74
2022/05/11 01:00:23;;;;;;;9.63;2.35;;;;;;;-149.78;100.00;50084.22;5118197;27;20031;-74
2022/05/11 01:02:55;;;;;;;9.73;2.53;;;;;;;-149.78;100.00;50115.50;5100980;27;20063;-74
2022/05/11 01:05:22;;;;;;;11.15;2.33;;;;;;;-149.78;100.00;50107.69;5119885;27;20039;-74
2022/05/11 01:07:49;;;;;;;12.05;2.42;;;;;;;-149.78;100.00;50115.50;5102232;27;20077;-74
2022/05/11 01:10:15;;;;;;;12.13;2.80;;;;;;;-149.78;100.00;50138.97;5120667;27;20046;-73
2022/05/11 01:12:46;;;;;;;8.65;2.58;;;;;;;-149.78;100.00;50137.03;5120615;27;20525;-74
2022/05/11 01:15:14;;;;;;;11.75;2.33;;;;;;;-149.78;100.00;50115.50;5119665;27;20076;-73
2022/05/11 01:17:41;;;;;;;8.07;2.17;;;;;;;-149.78;100.00;50101.81;5120436;27;20035;-74
2022/05/11 01:20:09;;;;;;;11.98;2.38;;;;;;;-149.78;100.00;50127.25;5119377;27;20025;-74
2022/05/11 01:22:51;;;;;;;10.70;2.08;;;;;;;-149.78;100.00;50099.88;5101352;27;20080;-74
2022/05/11 01:25:17;;;;;;;9.95;2.30;;;;;;;-149.78;100.00;50146.81;5119602;27;20023;-73
2022/05/11 01:27:44;;;;;;;11.18;2.58;;;;;;;-149.78;100.00;50113.56;5101505;27;20046;-74
2022/05/11 01:30:10;;;;;;;14.52;2.28;;;;;;;-149.78;100.00;50138.97;5099172;27;20035;-74
2022/05/11 01:32:37;;;;;;;12.40;2.38;;;;;;;-149.78;100.00;50123.34;5119646;27;20023;-74
2022/05/11 01:35:38;;;;;;;11.93;2.58;;;;;;;-149.78;100.00;50086.19;5101569;27;20125;-74
2022/05/11 01:38:15;;;;;;;10.95;1.85;;;;;;;-149.78;100.00;50138.97;5100600;27;20070;-74
2022/05/11 01:40:41;;;;;;;13.57;2.53;;;;;;;-149.78;100.00;50148.75;5101263;28;20037;-74
2022/05/11 01:43:06;;;;;;;13.60;2.47;;;;;;;-149.78;100.00;50115.50;5067372;28;20042;-74
2022/05/11 01:45:32;;;;;;;9.65;2.95;;;;;;;-149.78;100.00;50117.47;5117667;27;20043;-74
2022/05/11 01:47:58;;;;;;;11.50;2.10;;;;;;;-149.78;100.00;50142.88;5119341;28;20023;-74
2022/05/11 01:50:26;;;;;;;13.00;2.10;;;;;;;-149.78;100.00;50107.69;5084754;28;20576;-75
2022/05/11 01:52:52;;;;;;;6.68;2.15;;;;;;;-149.78;100.00;50095.94;5100523;28;20110;-74
2022/05/11 01:55:18;;;;;;;16.50;3.03;;;;;;;-149.78;100.00;50107.69;5119496;28;20110;-74
2022/05/11 01:57:43;;;;;;;14.13;2.50;;;;;;;-149.78;100.00;50160.50;5101975;28;20512;-74
2022/05/11 02:00:09;;;;;;;10.32;2.83;;;;;;;-149.78;100.00;50142.88;5121128;27;20466;-74
2022/05/11 02:02:35;;;;;;;8.80;1.80;;;;;;;-149.78;100.00;50099.88;5104523;27;20039;-74
2022/05/11 02:07:51;;;;;;;10.70;1.92;;;;;;;-149.78;100.00;50097.91;5127979;27;20035;-74
2022/05/11 02:10:20;;;;;;;11.82;2.60;;;;;;;-149.78;100.00;50117.47;5128607;27;20040;-73
2022/05/11 02:12:46;;;;;;;5.65;2.10;;;;;;;-149.78;100.00;50103.78;5127999;27;20112;-74
2022/05/11 02:15:14;;;;;;;9.05;1.73;;;;;;;-149.78;100.00;50129.19;5127222;27;20121;-73
2022/05/11 02:17:42;;;;;;;9.02;2.15;;;;;;;-149.78;100.00;50107.69;5128259;27;20061;-73
2022/05/11 02:20:08;;;;;;;11.98;2.25;;;;;;;-149.78;100.00;50111.59;5108929;27;20679;-74
2022/05/11 02:22:34;;;;;;;11.13;2.63;;;;;;;-149.78;100.00;50123.34;5109048;27;20043;-74
2022/05/11 02:25:00;;;;;;;10.05;2.05;;;;;;;-149.78;100.00;50170.25;5075440;27;20058;-74
2022/05/11 02:27:26;;;;;;;5.63;2.17;;;;;;;-149.78;100.00;50125.28;5127245;27;20562;-74
2022/05/11 02:29:51;;;;;;;14.70;1.95;;;;;;;-149.78;100.00;50166.34;5127667;27;20030;-74
2022/05/11 02:32:18;;;;;;;8.25;1.83;;;;;;;-149.78;100.00;50123.34;5109596;27;20110;-74
2022/05/11 02:37:28;;;;;;;10.48;2.00;;;;;;;-149.78;100.00;50092.03;5126940;27;20027;-74
2022/05/11 02:39:54;;;;;;;11.95;2.10;;;;;;;-149.78;100.00;50154.63;5127444;27;20057;-74
2022/05/11 02:42:20;;;;;;;16.00;2.53;;;;;;;-149.78;100.00;50131.16;5107921;27;20695;-74
2022/05/11 02:44:46;;;;;;;10.23;1.90;;;;;;;-149.78;100.00;50101.81;5108850;27;20130;-74
2022/05/11 02:47:12;;;;;;;9.85;2.25;;;;;;;-149.78;100.00;50099.88;5126720;27;20026;-74
2022/05/11 02:49:38;;;;;;;16.08;2.70;;;;;;;-149.78;100.00;50127.25;5109021;27;20039;-74
2022/05/11 02:52:04;;;;;;;10.13;2.22;;;;;;;-149.78;100.00;50131.16;5127432;27;20095;-74
2022/05/11 02:54:30;;;;;;;7.68;1.83;;;;;;;-149.78;100.00;50072.50;5127512;27;20083;-74
2022/05/11 02:56:55;;;;;;;8.00;2.25;;;;;;;-149.78;100.00;50138.97;5128007;27;20451;-74
2022/05/11 02:59:21;;;;;;;11.88;2.15;;;;;;;-149.78;100.00;50133.09;5108780;27;20106;-74
2022/05/11 03:01:49;;;;;;;9.20;2.15;;;;;;;-149.78;100.00;50131.16;5108973;27;20042;-74
2022/05/11 03:04:16;;;;;;;8.73;2.28;;;;;;;-149.78;100.00;50142.88;5108579;27;20111;-74
2022/05/11 03:06:42;;;;;;;10.93;2.10;;;;;;;-149.78;100.00;50127.25;5125300;27;20039;-74
2022/05/11 03:09:08;;;;;;;11.18;2.80;;;;;;;-149.78;100.00;50109.66;5120623;27;20408;-73
2022/05/11 03:11:34;;;;;;;16.60;3.03;;;;;;;-149.78;100.00;50111.59;5107421;28;20035;-74
2022/05/11 03:13:59;;;;;;;15.50;2.08;;;;;;;-149.78;100.00;50119.41;5127660;27;20084;-74
2022/05/11 03:16:25;;;;;;;14.13;2.78;;;;;;;-149.78;100.00;50113.56;5090933;27;21708;-74
2022/05/11 03:18:51;;;;;;;12.18;2.67;;;;;;;-149.78;100.00;50150.72;5126849;27;20107;-74
2022/05/11 03:21:16;;;;;;;16.45;2.13;;;;;;;-149.78;100.00;50170.25;5091355;27;20035;-74
2022/05/11 03:23:42;;;;;;;9.75;1.95;;;;;;;-149.78;100.00;50115.50;5126329;27;20055;-75
2022/05/11 03:26:11;;;;;;;14.57;2.20;;;;;;;-149.78;100.00;50103.78;5075107;27;20693;-74
2022/05/11 03:28:38;;;;;;;13.15;2.17;;;;;;;-149.78;100.00;50158.53;5109182;27;20039;-73
2022/05/11 03:31:04;;;;;;;11.48;2.03;;;;;;;-149.78;100.00;50129.19;5090760;27;20035;-74
2022/05/11 03:36:14;;;;;;;15.15;2.70;;;;;;;-149.78;100.00;50138.97;5126380;27;20482;-74
2022/05/11 03:38:40;;;;;;;16.08;2.80;;;;;;;-149.78;100.00;50119.41;5107630;27;20039;-74
2022/05/11 03:41:06;;;;;;;10.70;2.20;;;;;;;-149.78;100.00;50131.16;5091841;27;20031;-74
2022/05/11 03:43:32;;;;;;;9.38;2.35;;;;;;;-149.78;100.00;50135.06;5088531;27;20057;-74
2022/05/11 03:45:59;;;;;;;9.98;2.33;;;;;;;-149.78;100.00;50072.50;5090939;27;20114;-74
2022/05/11 03:48:25;;;;;;;12.38;2.20;;;;;;;-149.78;100.00;50142.88;5106044;27;20035;-74
2022/05/11 03:50:52;;;;;;;6.13;1.85;;;;;;;-149.78;100.00;50158.53;5107543;27;20035;-74
2022/05/11 03:53:17;;;;;;;15.65;3.08;;;;;;;-149.78;100.00;50109.66;5125120;27;20495;-74
2022/05/11 03:55:43;;;;;;;8.77;1.95;;;;;;;-149.78;100.00;50115.50;5106510;27;20031;-74
2022/05/11 03:58:09;;;;;;;10.45;2.50;;;;;;;-149.78;100.00;50127.25;5126946;27;20103;-74
2022/05/11 04:00:35;;;;;;;8.40;2.35;;;;;;;-149.78;100.00;50103.78;5107238;27;20039;-74
2022/05/11 04:03:01;;;;;;;9.95;2.00;;;;;;;-149.78;100.00;50131.16;5107954;27;20442;-74
2022/05/11 04:05:28;;;;;;;11.65;2.50;;;;;;;-149.78;100.00;50127.25;5091016;27;20083;-75
2022/05/11 04:07:53;;;;;;;10.45;2.50;;;;;;;-149.78;100.00;50131.16;5125964;27;20039;-74
2022/05/11 04:10:20;;;;;;;8.20;2.42;;;;;;;-149.78;100.00;50119.41;5125415;27;20068;-74
2022/05/11 04:12:54;;;;;;;10.90;2.60;;;;;;;-149.78;100.00;50107.69;5125569;27;20027;-75
2022/05/11 04:15:20;;;;;;;14.02;2.42;;;;;;;-149.78;100.00;50109.66;5125362;27;20822;-75
2022/05/11 04:17:46;;;;;;;8.88;2.13;;;;;;;-149.78;100.00;50111.59;5107055;27;20035;-74
2022/05/11 04:20:15;;;;;;;14.32;3.30;;;;;;;-149.78;100.00;50142.88;5125600;27;20110;-74
2022/05/11 04:22:41;;;;;;;12.30;2.22;;;;;;;-149.78;100.00;50158.53;5124953;27;20115;-74
2022/05/11 04:25:10;;;;;;;6.75;2.33;;;;;;;-149.78;100.00;50111.59;5124191;27;20542;-75
2022/05/11 04:27:36;;;;;;;6.18;2.45;;;;;;;-149.78;100.00;50154.63;5107463;27;20158;-75
2022/05/11 04:30:04;;;;;;;13.80;3.03;;;;;;;-149.78;100.00;50125.28;5090208;27;20035;-74
2022/05/11 04:32:30;;;;;;;12.05;2.50;;;;;;;-149.78;100.00;50152.66;5125129;27;20031;-74
2022/05/11 04:34:56;;;;;;;8.90;2.00;;;;;;;-149.78;100.00;50123.34;5107140;27;20030;-74
2022/05/11 04:37:21;;;;;;;7.20;2.00;;;;;;;-149.78;100.00;50146.81;5106996;27;20031;-74
2022/05/11 04:39:47;;;;;;;10.43;2.35;;;;;;;-149.78;100.00;50176.13;5106850;27;20143;-75
2022/05/11 04:42:13;;;;;;;8.05;2.08;;;;;;;-149.78;100.00;50150.72;5106686;27;20038;-74
2022/05/11 04:44:38;;;;;;;15.80;3.25;;;;;;;-149.78;100.00;50123.34;5123937;27;20054;-75
2022/05/11 04:47:13;;;;;;;8.43;2.65;;;;;;;-149.78;100.00;50162.44;5072591;27;20069;-74
2022/05/11 04:49:40;;;;;;;10.18;2.30;;;;;;;-149.78;100.00;50097.91;5127336;27;20106;-74
2022/05/11 04:52:12;;;;;;;13.90;2.30;;;;;;;-149.78;100.00;50138.97;5115351;27;20035;-74
2022/05/11 04:54:39;;;;;;;12.63;2.88;;;;;;;-149.78;100.00;50158.53;5128453;27;20020;-74
2022/05/11 04:57:06;;;;;;;11.13;2.60;;;;;;;-149.78;100.00;50125.28;5102952;27;20140;-73
2022/05/11 04:59:32;;;;;;;7.63;2.40;;;;;;;-149.78;100.00;50138.97;5094846;27;20042;-73
2022/05/11 05:01:59;;;;;;;10.75;2.58;;;;;;;-149.78;100.00;50119.41;5097240;27;20038;-73
2022/05/11 05:04:28;;;;;;;10.32;2.17;;;;;;;-149.78;100.00;50152.66;5123132;27;20039;-73
2022/05/11 05:06:54;;;;;;;11.50;2.47;;;;;;;-149.78;100.00;50166.34;5122864;27;20046;-73
2022/05/11 05:09:20;;;;;;;13.93;2.45;;;;;;;-149.78;100.00;50150.72;5103812;27;20038;-74
2022/05/11 05:11:46;;;;;;;6.47;2.17;;;;;;;-149.78;100.00;50158.53;5123693;27;20031;-75
2022/05/11 05:14:12;;;;;;;11.45;2.60;;;;;;;-149.78;100.00;50146.81;5122737;27;20949;-74
2022/05/11 05:16:39;;;;;;;6.82;3.25;;;;;;;-149.78;100.00;50146.81;5087469;27;20023;-75
2022/05/11 05:19:05;;;;;;;12.23;2.05;;;;;;;-149.78;100.00;50162.44;5088260;27;20043;-74
2022/05/11 05:21:32;;;;;;;14.35;3.40;;;;;;;-149.78;100.00;50166.34;5105193;27;20062;-74
2022/05/11 05:23:59;;;;;;;10.40;2.95;;;;;;;-149.78;100.00;50127.25;5124091;27;20035;-74
2022/05/11 05:26:24;;;;;;;11.80;3.80;;;;;;;-149.78;100.00;50142.88;5125676;27;21451;-75
2022/05/11 05:31:35;;;;;;;14.00;2.92;;;;;;;-149.78;100.00;50111.59;5125261;27;20535;-74
2022/05/11 05:34:01;;;;;;;16.13;2.90;;;;;;;-149.78;100.00;50138.97;5125412;27;20027;-74
2022/05/11 05:36:29;;;;;;;15.32;3.00;;;;;;;-149.78;100.00;50121.38;5104263;28;21570;-75
2022/05/11 05:38:55;;;;;;;9.98;2.58;;;;;;;-149.78;100.00;50123.34;5124072;27;20113;-75
2022/05/11 05:41:21;;;;;;;10.73;3.08;;;;;;;-149.78;100.00;50115.50;5105568;27;20369;-75
2022/05/11 05:43:47;;;;;;;9.80;2.65;;;;;;;-149.78;100.00;50127.25;5124006;27;20043;-76
2022/05/11 05:46:16;;;;;;;12.82;2.72;;;;;;;-149.78;100.00;50174.19;5089569;28;20055;-76
2022/05/11 05:48:42;;;;;;;7.93;2.75;;;;;;;-149.78;100.00;50127.25;5124187;27;20043;-76
2022/05/11 05:51:11;;;;;;;8.68;2.85;;;;;;;-149.78;100.00;50158.53;5125762;27;20078;-76
2022/05/11 05:53:40;;;;;;;11.18;2.70;;;;;;;-149.78;100.00;50162.44;5125033;28;20146;-76
2022/05/11 05:56:06;;;;;;;7.75;2.67;;;;;;;-149.78;100.00;50135.06;5124901;28;20073;-76
2022/05/11 05:58:33;;;;;;;8.07;2.42;;;;;;;-149.78;100.00;50150.72;5123083;27;20746;-76
2022/05/11 06:00:58;;;;;;;7.03;2.25;;;;;;;-149.78;100.00;50146.81;5123614;28;20023;-75
2022/05/11 06:03:28;;;;;;;8.10;2.50;;;;;;;-149.78;100.00;50133.09;5123169;28;20614;-75
2022/05/11 06:05:53;;;;;;;8.20;2.47;;;;;;;-149.78;100.00;50170.25;5123917;28;20043;-75
2022/05/11 06:08:19;;;;;;;5.97;2.45;;;;;;;-149.78;100.00;50166.34;5103721;28;20031;-73
2022/05/11 06:10:46;;;;;;;10.70;2.33;;;;;;;-149.78;100.00;50178.09;5087139;28;20031;-75
2022/05/11 06:13:14;;;;;;;10.63;2.78;;;;;;;-149.78;100.00;50103.78;5122997;28;20043;-75
2022/05/11 06:15:41;;;;;;;7.90;2.63;;;;;;;-149.78;100.00;50117.47;5123715;28;20059;-74
2022/05/11 06:18:08;;;;;;;11.85;3.38;;;;;;;-149.78;100.00;50182.00;5105074;28;20401;-74
2022/05/11 06:20:34;;;;;;;10.82;3.38;;;;;;;-149.78;100.00;50158.53;5104103;28;20560;-73
2022/05/11 06:23:03;;;;;;;4.20;2.55;;;;;;;-149.78;100.00;50154.63;5122933;28;20507;-74
2022/05/11 06:25:32;;;;;;;10.50;2.50;;;;;;;-149.78;100.00;50138.97;5086723;28;20062;-74
2022/05/11 06:27:58;;;;;;;6.60;2.40;;;;;;;-149.78;100.00;50123.34;5120421;28;20058;-73
2022/05/11 06:30:25;;;;;;;9.85;2.30;;;;;;;-149.78;100.00;50150.72;5121939;28;20140;-71
2022/05/11 06:32:51;;;;;;;7.20;2.30;;;;;;;-149.78;100.00;50127.25;5103489;28;20042;-72
2022/05/11 06:35:17;;;;;;;8.60;2.50;;;;;;;-149.78;100.00;50119.41;5117345;28;20027;-70
2022/05/11 06:37:44;;;;;;;13.77;2.60;;;;;;;-149.78;100.00;50150.72;5083944;28;20518;-72
2022/05/11 06:40:12;;;;;;;9.70;2.33;;;;;;;-149.78;100.00;50154.63;5119562;28;20039;-72
2022/05/11 06:42:38;;;;;;;6.63;2.50;;;;;;;-149.78;100.00;50123.34;5100028;28;20721;-74
2022/05/11 06:45:05;;;;;;;7.90;2.50;;;;;;;-149.78;100.00;50117.47;5116722;28;20047;-71
2022/05/11 06:47:33;;;;;;;10.05;2.50;;;;;;;-149.78;100.00;50135.06;5121275;27;20030;-72
2022/05/11 06:49:59;;;;;;;6.43;2.20;;;;;;;-149.78;100.00;50092.03;5123111;27;20035;-71
2022/05/11 06:52:24;;;;;;;9.82;2.65;;;;;;;-149.78;100.00;50138.97;5124494;27;20077;-72
2022/05/11 07:00:20;;;;;;;5.03;2.25;;;;;;;-149.78;100.00;50138.97;5122759;27;20034;-70
2022/05/11 07:02:49;;;;;;;5.90;2.08;;;;;;;-149.78;100.00;50156.56;5123124;27;20034;-70
2022/05/11 07:05:15;;;;;;;3.47;2.05;;;;;;;-149.78;100.00;50137.03;5124184;27;20386;-69
2022/05/11 07:07:41;;;;;;;6.70;1.98;;;;;;;-149.78;100.00;50158.53;5105483;27;20107;-71
2022/05/11 07:10:07;;;;;;;5.72;1.90;;;;;;;-149.78;100.00;50131.16;5070836;27;20031;-71
2022/05/11 07:12:35;;;;;;;3.72;2.05;;;;;;;-149.78;100.00;50142.88;5123529;27;20099;-71
2022/05/11 07:15:02;;;;;;;8.73;2.15;;;;;;;-149.78;100.00;50170.25;5102673;27;20118;-70
2022/05/11 07:18:04;;;;;;;11.38;2.30;;;;;;;-149.78;100.00;50154.63;5122600;27;20045;-71
2022/05/11 07:20:39;;;;;;;8.88;1.80;;;;;;;-149.78;100.00;50174.19;5120780;27;20047;-71
2022/05/11 07:23:07;;;;;;;6.07;2.08;;;;;;;-149.78;100.00;50150.72;5124413;27;20039;-71
2022/05/11 07:25:34;;;;;;;6.07;2.17;;;;;;;-149.78;100.00;50146.81;5106285;27;20600;-71
2022/05/11 07:28:01;;;;;;;5.40;2.40;;;;;;;-149.78;100.00;50135.06;5105950;27;20123;-71
2022/05/11 07:30:32;;;;;;;3.13;1.60;;;;;;;-149.78;100.00;50150.72;5124161;27;20137;-71
2022/05/11 07:32:58;;;;;;;6.47;1.90;;;;;;;-149.78;100.00;50131.16;5124044;27;20035;-71
2022/05/11 07:35:24;;;;;;;4.88;1.85;;;;;;;-149.78;100.00;50117.47;5123470;27;20092;-71
2022/05/11 07:37:50;;;;;;;5.80;1.98;;;;;;;-149.78;100.00;50154.63;5125342;27;20035;-71
2022/05/11 07:40:18;;;;;;;3.65;1.80;;;;;;;-149.78;100.00;50166.34;5106721;27;20054;-71
2022/05/11 07:42:44;;;;;;;7.15;1.98;;;;;;;-149.78;100.00;50158.53;5126010;27;20531;-71
2022/05/11 07:45:16;;;;;;;5.35;2.00;;;;;;;-149.78;100.00;50162.44;5125143;27;20500;-71
2022/05/11 07:47:41;;;;;;;6.35;1.90;;;;;;;-149.78;100.00;50150.72;5124931;27;20027;-71
2022/05/11 07:50:09;;;;;;;5.53;2.00;;;;;;;-149.78;100.00;50127.25;5124653;27;20104;-71
2022/05/11 07:52:34;;;;;;;7.57;2.38;;;;;;;-149.78;100.00;50170.25;5106617;27;20026;-71
2022/05/11 07:55:00;;;;;;;4.45;1.98;;;;;;;-149.78;100.00;50150.72;5105996;27;20573;-71
2022/05/11 08:00:11;;;;;;;5.80;2.08;;;;;;;-149.78;100.00;50166.34;5124377;27;20030;-71
2022/05/11 08:02:39;;;;;;;5.35;1.92;;;;;;;-149.78;100.00;50170.25;5124304;27;20031;-71
2022/05/11 08:05:11;;;;;;;4.45;1.80;;;;;;;-149.78;100.00;50185.91;5124676;27;20056;-71
2022/05/11 08:07:39;;;;;;;2.17;1.80;;;;;;;-149.78;100.00;50154.63;5124051;27;20035;-71
2022/05/11 08:10:06;;;;;;;7.47;2.00;;;;;;;-149.78;100.00;50162.44;5105983;27;20118;-71
2022/05/11 08:12:32;;;;;;;4.28;1.80;;;;;;;-149.78;100.00;50150.72;5123859;27;20023;-71
2022/05/11 08:14:57;;;;;;;5.13;1.67;;;;;;;-149.78;100.00;50127.25;5123682;27;20363;-71
2022/05/11 08:17:29;;;;;;;5.53;2.00;;;;;;;-149.78;100.00;50162.44;5088321;27;20630;-71
2022/05/11 08:19:55;;;;;;;3.00;1.63;;;;;;;-149.78;100.00;50178.09;5123548;27;20039;-71
2022/05/11 08:22:21;;;;;;;3.42;1.40;;;;;;;-149.78;100.00;50164.41;5105110;27;20031;-71
2022/05/11 08:24:51;;;;;;;4.35;1.65;;;;;;;-149.78;100.00;50123.34;5105492;27;20382;-71
2022/05/11 08:27:18;;;;;;;4.18;2.00;;;;;;;-149.78;100.00;50131.16;5123036;27;20438;-71
2022/05/11 08:35:12;;;;;;;3.17;2.10;;;;;;;-149.78;100.00;50158.53;5103971;27;20367;-71
2022/05/11 08:37:37;;;;;;;4.45;2.08;;;;;;;-149.78;100.00;50138.97;5121979;27;20031;-71
2022/05/11 08:40:05;;;;;;;2.45;1.85;;;;;;;-149.78;100.00;50111.59;5121553;27;20024;-71
2022/05/11 08:42:32;;;;;;;4.68;2.28;;;;;;;-149.78;100.00;50182.00;5122944;27;20620;-71
2022/05/11 08:45:01;;;;;;;4.13;2.05;;;;;;;-149.78;100.00;50127.25;5104583;27;20043;-72
2022/05/11 08:47:44;;;;;;;3.33;1.88;;;;;;;-149.78;100.00;50123.34;5123038;27;20093;-71
2022/05/11 08:50:20;;;;;;;5.75;1.75;;;;;;;-149.78;100.00;50125.28;5121156;27;20027;-71
2022/05/11 08:53:27;;;;;;;4.05;1.60;;;;;;;-149.78;100.00;50115.50;5133889;27;20050;-71
2022/05/11 08:55:56;;;;;;;3.25;1.50;;;;;;;-149.78;100.00;50107.69;5113346;28;20545;-71
2022/05/11 08:58:30;;;;;;;2.70;1.40;;;;;;;-149.78;100.00;50103.78;5129672;27;20087;-71
2022/05/11 09:00:57;;;;;;;3.28;1.70;;;;;;;-149.78;100.00;50101.81;5133715;27;20031;-71
2022/05/11 09:03:35;;;;;;;2.53;1.48;;;;;;;-149.78;100.00;50119.41;5133698;27;20035;-71
2022/05/11 09:06:09;;;;;;;2.17;1.30;;;;;;;-149.78;100.00;50127.25;5133703;27;20110;-71
2022/05/11 09:08:38;;;;;;;1.20;1.00;;;;;;;-149.78;100.00;50115.50;5130286;27;20031;-71
2022/05/11 09:11:06;;;;;;;3.20;1.27;;;;;;;-149.78;100.00;50115.50;5123450;27;20390;-71
2022/05/11 09:13:35;;;;;;;2.50;1.35;;;;;;;-149.78;100.00;50133.09;5104611;27;20026;-71
2022/05/11 09:16:03;;;;;;;4.05;1.13;;;;;;;-149.78;100.00;50146.81;5122964;27;20505;-71
2022/05/11 09:18:31;;;;;;;1.20;1.10;;;;;;;-149.78;100.00;50129.19;5123500;27;20118;-71
2022/05/11 09:21:01;;;;;;;2.05;0.88;;;;;;;-149.78;100.00;50123.34;5121650;27;20029;-71
2022/05/11 09:23:34;;;;;;;1.13;0.73;;;;;;;-149.78;100.00;50138.97;5122834;27;20034;-71
2022/05/11 09:26:04;;;;;;;0.80;0.80;;;;;;;-149.78;100.00;50144.84;5123246;27;20059;-71
2022/05/11 09:28:37;;;;;;;1.30;0.70;;;;;;;-149.78;100.00;50154.63;5104808;27;20112;-71
2022/05/11 09:31:12;;;;;;;0.65;0.60;;;;;;;-149.78;100.00;50150.72;5123566;27;20041;-71
2022/05/11 09:33:42;;;;;;;1.80;0.80;;;;;;;-149.78;100.00;50144.84;5123597;27;20045;-71
2022/05/11 09:36:11;;;;;;;1.58;1.05;;;;;;;-149.78;100.00;50182.00;5104517;27;20382;-71
2022/05/11 09:38:46;;;;;;;2.20;0.90;;;;;;;-149.78;100.00;50138.97;5123505;27;20083;-71
2022/05/11 09:41:18;;;;;;;2.08;0.82;;;;;;;-149.78;100.00;50176.13;5123766;27;20031;-71
2022/05/11 09:43:46;;;;;;;2.15;0.90;;;;;;;-149.78;100.00;50154.63;5123933;27;20080;-71
2022/05/11 09:46:17;;;;;;;1.83;0.60;;;;;;;-149.78;100.00;50162.44;5123272;27;20414;-71
2022/05/11 09:49:05;;;;;;;1.30;0.70;;;;;;;-149.78;100.00;50146.81;5105273;28;20440;-71
2022/05/11 09:51:34;;;;;;;0.77;0.60;;;;;;;-149.78;100.00;50166.34;5123090;28;20042;-71
2022/05/11 09:54:18;;;;;;;1.15;0.70;;;;;;;-149.78;100.00;50158.53;5123027;27;20038;-71
2022/05/11 09:57:11;;;;;;;0.75;0.60;;;;;;;-149.78;100.00;50174.19;5104936;28;20088;-71
2022/05/11 09:59:45;;;;;;;2.53;0.80;;;;;;;-149.78;100.00;50166.34;5123708;27;20096;-71
2022/05/11 10:02:16;;;;;;;1.38;0.60;;;;;;;-149.78;100.00;50150.72;5104634;28;20031;-71
2022/05/11 10:05:19;;;;;;;0.67;0.67;;;;;;;-149.78;100.00;50182.00;5123344;28;20038;-71
2022/05/11 10:07:49;;;;;;;0.77;0.68;;;;;;;-149.78;100.00;50142.88;5123558;28;20126;-71
2022/05/11 10:10:24;;;;;;;2.22;0.70;;;;;;;-149.78;100.00;50180.03;5104225;28;20023;-71
2022/05/11 10:12:49;;;;;;;1.08;0.80;;;;;;;-149.78;100.00;50146.81;5123541;28;20027;-71
2022/05/11 10:24:20;;;;;;;0.52;0.30;;;;;;;-149.78;100.00;50176.13;5126004;27;20469;-71
2022/05/11 10:27:00;;;;;;;0.85;0.55;;;;;;;-149.78;100.00;50162.44;5125801;27;20460;-71
2022/05/11 10:29:56;;;;;;;1.35;0.47;;;;;;;-149.78;100.00;50150.72;5125836;27;20037;-71
2022/05/11 10:32:59;;;;;;;3.20;0.45;;;;;;;-149.78;100.00;50174.19;5125709;27;20027;-71
2022/05/11 10:35:46;;;;;;;0.52;0.50;;;;;;;-149.78;100.00;50172.22;5107651;27;20027;-71
2022/05/11 10:38:26;;;;;;;0.85;0.50;;;;;;;-149.78;100.00;50113.56;5126552;27;20841;-71
2022/05/11 10:41:08;;;;;;;1.55;0.40;;;;;;;-149.78;100.00;50142.88;5126905;27;20027;-71
2022/05/11 10:43:56;;;;;;;0.47;0.40;;;;;;;-149.78;100.00;50133.09;5127110;27;20115;-71
2022/05/11 10:46:34;;;;;;;1.23;0.43;;;;;;;-149.78;100.00;50154.63;5126230;27;20042;-71
2022/05/11 10:49:18;;;;;;;2.03;0.50;;;;;;;-149.78;100.00;50138.97;5127856;27;20662;-71
2022/05/11 10:52:07;;;;;;;1.00;0.55;;;;;;;-149.78;100.00;50123.34;5108047;27;20039;-71
2022/05/11 10:54:45;;;;;;;1.67;0.70;;;;;;;-149.78;100.00;50135.06;5125846;27;20058;-71
2022/05/11 10:57:41;;;;;;;0.60;0.40;;;;;;;-149.78;100.00;50144.84;5125988;27;20031;-71
2022/05/11 11:00:13;;;;;;;0.68;0.47;;;;;;;-149.78;100.00;50107.69;5108019;27;20087;-71
2022/05/11 11:03:04;;;;;;;1.00;0.60;;;;;;;-149.78;100.00;50131.16;5126118;27;20041;-71
2022/05/11 11:05:32;;;;;;;0.75;0.75;;;;;;;-149.78;100.00;50119.41;5126216;27;20035;-71
2022/05/11 11:08:05;;;;;;;1.38;0.52;;;;;;;-149.78;100.00;50138.97;5127172;27;20027;-71
2022/05/11 11:10:47;;;;;;;0.88;0.60;;;;;;;-149.78;100.00;50138.97;5125781;27;20451;-71
2022/05/11 11:13:25;;;;;;;0.82;0.60;;;;;;;-149.78;100.00;50095.94;5126678;27;20023;-71
2022/05/11 11:15:51;;;;;;;1.38;0.70;;;;;;;-149.78;100.00;50111.59;5107399;27;20436;-71
2022/05/11 11:18:23;;;;;;;0.82;0.50;;;;;;;-149.78;100.00;50172.22;5107364;27;20508;-71
2022/05/11 11:20:51;;;;;;;0.80;0.50;;;;;;;-149.78;100.00;50099.88;5125570;27;20035;-71
2022/05/11 11:23:17;;;;;;;0.55;0.52;;;;;;;-149.78;100.00;50103.78;5125163;27;20398;-71
2022/05/11 11:25:48;;;;;;;1.35;0.50;;;;;;;-149.78;100.00;50148.75;5124671;27;20027;-71
2022/05/11 11:28:15;;;;;;;2.05;0.60;;;;;;;-149.78;100.00;50123.34;5126242;27;20080;-71
2022/05/11 11:31:04;;;;;;;1.88;0.60;;;;;;;-149.78;100.00;50099.88;5107408;27;20027;-71
2022/05/11 11:33:33;;;;;;;1.95;0.50;;;;;;;-149.78;100.00;50150.72;5125170;27;20042;-71
2022/05/11 11:36:04;;;;;;;0.88;0.60;;;;;;;-149.78;100.00;50146.81;5125900;27;20031;-71
2022/05/11 11:38:39;;;;;;;0.67;0.60;;;;;;;-149.78;100.00;50113.56;5125431;27;20023;-71
2022/05/11 11:41:14;;;;;;;1.65;0.77;;;;;;;-149.78;100.00;50160.50;5106994;27;20419;-71
2022/05/11 11:43:53;;;;;;;1.85;0.60;;;;;;;-149.78;100.00;50135.06;5125482;27;20058;-71
2022/05/11 11:46:40;;;;;;;2.05;0.93;;;;;;;-149.78;100.00;50162.44;5125697;27;20031;-71
2022/05/11 11:49:19;;;;;;;2.83;0.63;;;;;;;-149.78;100.00;50142.88;5124887;27;20075;-71
2022/05/11 11:51:50;;;;;;;1.42;0.88;;;;;;;-149.78;100.00;50146.81;5105775;27;20113;-71